Time;durP1;ratioP1;P1;durP2;ratioP2;P2;SDS_P1;SDS_P2;PMS_P1;PMS_P2;Temp;Humidity;BMP_temperature;BMP_pressure;BME280_temperature;BME280_humidity;BME280_pressure;Samples;Min_cycle;Max_cycle;Signal;HPM_P1;HPM_P2
2022/03/28 00:00:46;;;;;;;;;;;13.70;93.70;;;;;;4933206;29;19950;-92
2022/03/28 00:03:12;;;;;;;;;;;13.70;93.80;;;;;;4935179;29;19921;-92
2022/03/28 00:05:39;;;;;;;;;;;13.80;93.90;;;;;;4918730;29;19911;-91
2022/03/28 00:08:05;;;;;;;;;;;13.80;93.70;;;;;;4932979;29;20288;-92
2022/03/28 00:10:30;;;;;;;;;;;13.80;93.90;;;;;;4932896;29;19917;-92
2022/03/28 00:12:56;;;;;;;;;;;13.80;94.40;;;;;;4932825;29;20392;-91
2022/03/28 00:15:22;;;;;;;;;;;13.70;93.80;;;;;;4933972;29;20058;-91
2022/03/28 00:17:47;;;;;;;;;;;13.80;93.40;;;;;;4934109;29;20403;-91
2022/03/28 00:20:13;;;;;;;;;;;13.60;93.20;;;;;;4932866;29;19911;-91
2022/03/28 00:22:39;;;;;;;;;;;13.60;93.40;;;;;;4932745;29;20014;-91
2022/03/28 00:25:06;;;;;;;;;;;13.60;93.60;;;;;;4932779;29;19915;-92
2022/03/28 00:27:32;;;;;;;;;;;13.60;93.80;;;;;;4934145;29;19911;-92
2022/03/28 00:29:57;;;;;;;;;;;13.60;93.70;;;;;;4932711;29;20379;-92
2022/03/28 00:32:23;;;;;;;;;;;13.60;93.80;;;;;;4932456;29;19911;-91
2022/03/28 00:34:48;;;;;;;;;;;13.70;94.20;;;;;;4932519;29;20410;-92
2022/03/28 00:37:14;;;;;;;;;;;13.60;93.70;;;;;;4932658;29;19925;-91
2022/03/28 00:39:40;;;;;;;;;;;13.60;94.40;;;;;;4934957;29;20010;-91
2022/03/28 00:42:05;;;;;;;;;;;13.50;93.80;;;;;;4936654;29;19957;-91
2022/03/28 00:44:31;;;;;;;;;;;13.60;93.70;;;;;;4936170;29;19962;-91
2022/03/28 00:46:58;;;;;;;;;;;13.50;93.60;;;;;;4936259;29;20310;-91
2022/03/28 00:49:23;;;;;;;;;;;13.40;93.50;;;;;;4936141;29;19915;-91
2022/03/28 00:51:49;;;;;;;;;;;13.40;94.20;;;;;;4935936;29;19917;-91
2022/03/28 00:54:15;;;;;;;;;;;13.50;93.90;;;;;;4951060;29;20001;-92
2022/03/28 00:56:42;;;;;;;;;;;13.40;94.10;;;;;;4937270;29;19926;-91
2022/03/28 00:59:08;;;;;;;;;;;13.40;93.70;;;;;;4952313;29;19938;-91
2022/03/28 01:01:34;;;;;;;;;;;13.40;94.20;;;;;;4952198;29;20388;-91
2022/03/28 01:03:59;;;;;;;;;;;13.40;93.70;;;;;;4952132;29;19965;-91
2022/03/28 01:06:25;;;;;;;;;;;13.40;93.60;;;;;;4952045;29;19911;-91
2022/03/28 01:08:52;;;;;;;;;;;13.30;94.10;;;;;;4951796;29;19918;-92
2022/03/28 01:11:18;;;;;;;;;;;13.30;94.00;;;;;;4951782;29;20368;-92
2022/03/28 01:13:45;;;;;;;;;;;13.30;94.20;;;;;;4952038;29;19918;-91
2022/03/28 01:16:10;;;;;;;;;;;13.30;93.90;;;;;;4951913;29;19941;-91
2022/03/28 01:18:36;;;;;;;;;;;13.20;93.70;;;;;;4937074;29;19910;-91
2022/03/28 01:21:03;;;;;;;;;;;13.20;94.10;;;;;;4936887;29;19911;-91
2022/03/28 01:23:29;;;;;;;;;;;13.20;94.40;;;;;;4952036;29;19965;-91
2022/03/28 01:25:56;;;;;;;;;;;13.20;94.10;;;;;;4951727;29;19946;-91
2022/03/28 01:28:23;;;;;;;;;;;13.20;94.50;;;;;;4951628;29;19978;-91
2022/03/28 01:30:49;;;;;;;;;;;13.10;94.10;;;;;;4936694;29;19911;-91
2022/03/28 01:33:15;;;;;;;;;;;13.10;94.60;;;;;;4951529;29;20391;-91
2022/03/28 01:35:42;;;;;;;;;;;13.00;94.40;;;;;;4951318;29;20362;-91
2022/03/28 01:38:09;;;;;;;;;;;13.00;94.40;;;;;;4951742;29;20077;-91
2022/03/28 01:40:37;;;;;;;;;;;12.90;94.70;;;;;;4951295;29;19944;-91
2022/03/28 01:43:02;;;;;;;;;;;12.90;94.70;;;;;;4937133;29;20318;-91
2022/03/28 01:45:28;;;;;;;;;;;12.80;94.90;;;;;;4951205;29;19911;-91
2022/03/28 01:47:54;;;;;;;;;;;12.80;95.40;;;;;;4951483;29;19911;-91
2022/03/28 01:50:20;;;;;;;;;;;12.80;95.20;;;;;;4935171;29;20006;-92
2022/03/28 01:52:45;;;;;;;;;;;12.70;95.10;;;;;;4950819;29;20322;-91
2022/03/28 01:55:11;;;;;;;;;;;12.70;95.20;;;;;;4951342;29;19911;-91
2022/03/28 01:57:37;;;;;;;;;;;12.70;95.20;;;;;;4951048;29;19995;-91
2022/03/28 02:00:04;;;;;;;;;;;12.60;95.30;;;;;;4951071;29;20446;-90
2022/03/28 02:02:30;;;;;;;;;;;12.70;95.40;;;;;;4951055;29;19911;-91
2022/03/28 02:04:55;;;;;;;;;;;12.60;95.60;;;;;;4936408;29;20402;-91
2022/03/28 02:07:21;;;;;;;;;;;12.60;95.70;;;;;;4950789;29;19911;-91
2022/03/28 02:09:46;;;;;;;;;;;12.60;95.60;;;;;;4936082;29;19917;-91
2022/03/28 02:12:13;;;;;;;;;;;12.60;95.80;;;;;;4935885;29;19967;-91
2022/03/28 02:14:39;;;;;;;;;;;12.60;95.80;;;;;;4935888;29;19911;-90
2022/03/28 02:17:04;;;;;;;;;;;12.60;96.10;;;;;;4936070;29;19919;-91
2022/03/28 02:19:30;;;;;;;;;;;12.60;96.00;;;;;;4950581;29;19911;-91
2022/03/28 02:21:56;;;;;;;;;;;12.60;95.90;;;;;;4935957;29;19985;-91
2022/03/28 02:24:21;;;;;;;;;;;12.60;95.80;;;;;;4936009;29;19915;-90
2022/03/28 02:26:47;;;;;;;;;;;12.60;95.80;;;;;;4935766;29;20355;-90
2022/03/28 02:29:12;;;;;;;;;;;12.60;95.80;;;;;;4938500;29;19930;-90
2022/03/28 02:31:38;;;;;;;;;;;12.60;96.30;;;;;;4951716;29;20279;-91
2022/03/28 02:34:04;;;;;;;;;;;12.60;96.10;;;;;;4935538;29;19911;-91
2022/03/28 02:36:29;;;;;;;;;;;12.50;96.00;;;;;;4950362;29;19918;-91
2022/03/28 02:38:55;;;;;;;;;;;12.50;96.00;;;;;;4949857;29;19911;-90
2022/03/28 02:41:20;;;;;;;;;;;12.50;96.10;;;;;;4935631;29;19911;-91
2022/03/28 02:43:46;;;;;;;;;;;12.50;96.10;;;;;;4950136;29;19915;-91
2022/03/28 02:46:11;;;;;;;;;;;12.40;96.40;;;;;;4949998;29;20017;-91
2022/03/28 02:48:37;;;;;;;;;;;12.40;96.10;;;;;;4949984;29;19915;-91
2022/03/28 02:51:03;;;;;;;;;;;12.40;96.50;;;;;;4949846;29;20295;-90
2022/03/28 02:53:28;;;;;;;;;;;12.40;96.40;;;;;;4949554;29;19923;-91
2022/03/28 02:55:54;;;;;;;;;;;12.30;96.60;;;;;;4949645;29;19923;-90
2022/03/28 02:58:19;;;;;;;;;;;12.30;96.70;;;;;;4949694;29;19957;-90
2022/03/28 03:00:45;;;;;;;;;;;12.40;96.80;;;;;;4949655;29;20360;-90
2022/03/28 03:03:10;;;;;;;;;;;12.30;97.10;;;;;;4934737;29;19911;-90
2022/03/28 03:05:36;;;;;;;;;;;12.30;96.90;;;;;;4934956;29;20340;-90
2022/03/28 03:08:02;;;;;;;;;;;12.30;96.70;;;;;;4949585;29;20013;-90
2022/03/28 03:10:28;;;;;;;;;;;12.30;96.80;;;;;;4935036;29;19910;-90
2022/03/28 03:12:53;;;;;;;;;;;12.30;97.20;;;;;;4949415;29;19911;-90
2022/03/28 03:15:19;;;;;;;;;;;12.30;97.50;;;;;;4934534;29;19938;-90
2022/03/28 03:17:44;;;;;;;;;;;12.40;97.80;;;;;;4934802;29;20202;-90
2022/03/28 03:20:10;;;;;;;;;;;12.40;97.50;;;;;;4949417;29;19990;-91
2022/03/28 03:22:36;;;;;;;;;;;12.30;97.20;;;;;;4949405;29;19910;-91
2022/03/28 03:25:02;;;;;;;;;;;12.40;97.00;;;;;;4949266;29;19922;-90
2022/03/28 03:27:27;;;;;;;;;;;12.40;96.70;;;;;;4934582;29;19953;-90
2022/03/28 03:29:53;;;;;;;;;;;12.40;96.70;;;;;;4949206;29;19911;-90
2022/03/28 03:32:18;;;;;;;;;;;12.40;96.80;;;;;;4934465;29;20197;-90
2022/03/28 03:34:44;;;;;;;;;;;12.40;96.90;;;;;;4934304;29;19911;-90
2022/03/28 03:37:09;;;;;;;;;;;12.30;96.40;;;;;;4934318;29;19925;-90
2022/03/28 03:39:35;;;;;;;;;;;12.40;96.40;;;;;;4948846;29;19962;-91
2022/03/28 03:42:01;;;;;;;;;;;12.30;96.00;;;;;;4934659;29;19918;-90
2022/03/28 03:44:26;;;;;;;;;;;12.30;95.70;;;;;;4948885;29;20392;-90
2022/03/28 03:46:52;;;;;;;;;;;12.20;95.80;;;;;;4934286;29;19954;-90
2022/03/28 03:49:17;;;;;;;;;;;12.30;95.30;;;;;;4934272;29;20389;-90
2022/03/28 03:51:43;;;;;;;;;;;12.30;95.50;;;;;;4948685;29;20414;-90
2022/03/28 03:54:09;;;;;;;;;;;12.30;95.50;;;;;;4933820;29;19923;-90
2022/03/28 03:56:35;;;;;;;;;;;12.30;95.20;;;;;;4918428;29;19970;-90
2022/03/28 03:59:00;;;;;;;;;;;12.40;95.10;;;;;;4934926;29;20009;-90
2022/03/28 04:01:26;;;;;;;;;;;12.30;94.90;;;;;;4932621;29;19953;-90
2022/03/28 04:03:55;;;;;;;;;;;12.30;94.90;;;;;;4932525;29;19915;-90
2022/03/28 04:06:21;;;;;;;;;;;12.30;94.40;;;;;;4934020;29;19915;-90
2022/03/28 04:08:46;;;;;;;;;;;12.30;94.10;;;;;;4932494;29;19911;-90
2022/03/28 04:11:12;;;;;;;;;;;12.30;93.70;;;;;;4934127;29;19918;-90
2022/03/28 04:13:38;;;;;;;;;;;12.30;93.90;;;;;;4931786;29;19954;-88
2022/03/28 04:16:04;;;;;;;;;;;12.40;93.70;;;;;;4932141;29;20009;-90
2022/03/28 04:18:30;;;;;;;;;;;12.40;94.00;;;;;;4933757;29;19910;-90
2022/03/28 04:20:55;;;;;;;;;;;12.30;93.80;;;;;;4932211;29;20292;-90
2022/03/28 04:23:22;;;;;;;;;;;12.30;93.90;;;;;;4932449;29;19939;-90
2022/03/28 04:25:47;;;;;;;;;;;12.40;93.10;;;;;;4932417;29;19961;-92
2022/03/28 04:28:13;;;;;;;;;;;12.40;93.20;;;;;;4932336;29;19910;-90
2022/03/28 04:30:38;;;;;;;;;;;12.40;93.20;;;;;;4932398;29;19915;-90
2022/03/28 04:33:07;;;;;;;;;;;12.30;93.00;;;;;;4933504;29;19939;-89
2022/03/28 04:35:33;;;;;;;;;;;12.30;93.00;;;;;;4933458;29;19958;-90
2022/03/28 04:38:00;;;;;;;;;;;12.20;93.30;;;;;;4931932;29;20402;-89
2022/03/28 04:40:25;;;;;;;;;;;12.20;92.80;;;;;;4933253;29;19911;-90
2022/03/28 04:42:51;;;;;;;;;;;12.20;92.70;;;;;;4932335;29;19914;-90
2022/03/28 04:45:16;;;;;;;;;;;12.20;92.70;;;;;;4932188;29;20261;-90
2022/03/28 04:47:42;;;;;;;;;;;12.20;92.70;;;;;;4933445;29;19915;-90
2022/03/28 04:50:08;;;;;;;;;;;12.20;92.50;;;;;;4932212;29;19938;-90
2022/03/28 04:52:35;;;;;;;;;;;12.20;92.80;;;;;;4933231;29;19927;-90
2022/03/28 04:55:01;;;;;;;;;;;12.20;92.20;;;;;;4933489;29;19911;-90
2022/03/28 04:57:26;;;;;;;;;;;12.20;92.50;;;;;;4947719;29;20009;-90
2022/03/28 04:59:52;;;;;;;;;;;12.20;92.00;;;;;;4933289;29;19970;-89
2022/03/28 05:02:17;;;;;;;;;;;12.30;91.80;;;;;;4933203;29;19966;-90
2022/03/28 05:04:43;;;;;;;;;;;12.20;92.50;;;;;;4948027;29;19911;-89
2022/03/28 05:07:09;;;;;;;;;;;12.20;92.00;;;;;;4933876;29;19917;-90
2022/03/28 05:09:34;;;;;;;;;;;12.20;92.30;;;;;;4933260;29;20371;-90
2022/03/28 05:12:00;;;;;;;;;;;12.20;92.50;;;;;;4947826;29;20268;-90
2022/03/28 05:14:26;;;;;;;;;;;12.20;92.40;;;;;;4933003;29;19918;-91
2022/03/28 05:16:51;;;;;;;;;;;12.10;92.20;;;;;;4933021;29;20021;-89
2022/03/28 05:19:17;;;;;;;;;;;12.10;92.00;;;;;;4947721;29;19915;-88
2022/03/28 05:21:42;;;;;;;;;;;12.20;92.10;;;;;;4933395;29;19914;-92
2022/03/28 05:24:08;;;;;;;;;;;12.20;91.50;;;;;;4956491;29;19918;-92
2022/03/28 05:26:33;;;;;;;;;;;12.20;91.70;;;;;;4953988;28;20300;-93
2022/03/28 05:29:00;;;;;;;;;;;12.20;92.10;;;;;;4952266;29;19911;-92
2022/03/28 05:31:26;;;;;;;;;;;12.20;91.90;;;;;;4952198;29;19918;-92
2022/03/28 05:33:51;;;;;;;;;;;12.20;91.90;;;;;;4951660;29;19915;-92
2022/03/28 05:36:18;;;;;;;;;;;12.20;92.70;;;;;;4951578;29;19926;-92
2022/03/28 05:38:43;;;;;;;;;;;12.10;92.50;;;;;;4951814;29;19911;-92
2022/03/28 05:41:09;;;;;;;;;;;12.10;92.60;;;;;;4936789;29;19918;-92
2022/03/28 05:43:36;;;;;;;;;;;12.10;92.50;;;;;;4951861;29;19911;-92
2022/03/28 05:46:02;;;;;;;;;;;12.00;92.70;;;;;;4951731;29;19962;-92
2022/03/28 05:48:27;;;;;;;;;;;12.00;93.10;;;;;;4951725;29;19915;-92
2022/03/28 05:50:53;;;;;;;;;;;11.90;92.60;;;;;;4954881;29;19961;-91
2022/03/28 05:53:19;;;;;;;;;;;11.90;92.90;;;;;;4962342;29;20155;-92
2022/03/28 05:55:44;;;;;;;;;;;11.80;93.00;;;;;;4949294;29;19923;-91
2022/03/28 05:58:11;;;;;;;;;;;11.80;93.00;;;;;;4945358;29;19918;-92
2022/03/28 06:00:37;;;;;;;;;;;11.80;92.50;;;;;;4946582;29;19958;-92
2022/03/28 06:03:05;;;;;;;;;;;11.80;92.50;;;;;;4925155;29;19994;-91
2022/03/28 06:05:31;;;;;;;;;;;11.80;92.40;;;;;;4917883;29;20047;-92
2022/03/28 06:07:57;;;;;;;;;;;11.90;92.90;;;;;;4931991;29;19958;-91
2022/03/28 06:10:23;;;;;;;;;;;11.90;92.50;;;;;;4931736;29;19911;-91
2022/03/28 06:12:48;;;;;;;;;;;11.90;92.30;;;;;;4917158;29;19994;-90
2022/03/28 06:15:15;;;;;;;;;;;11.90;92.40;;;;;;4917064;29;19953;-92
2022/03/28 06:17:43;;;;;;;;;;;12.00;92.50;;;;;;4931606;29;19919;-92
2022/03/28 06:20:09;;;;;;;;;;;12.00;92.00;;;;;;4931700;29;20006;-92
2022/03/28 06:22:35;;;;;;;;;;;12.00;92.00;;;;;;4931825;29;19911;-92
2022/03/28 06:25:01;;;;;;;;;;;12.00;92.10;;;;;;4931739;29;19918;-91
2022/03/28 06:27:27;;;;;;;;;;;12.00;92.10;;;;;;4916910;29;19995;-92
2022/03/28 06:29:52;;;;;;;;;;;12.00;92.30;;;;;;4936574;29;20025;-92
2022/03/28 06:32:18;;;;;;;;;;;12.10;91.80;;;;;;4952385;29;20395;-92
2022/03/28 06:34:44;;;;;;;;;;;12.20;92.10;;;;;;4935872;29;19915;-92
2022/03/28 06:37:09;;;;;;;;;;;12.20;92.20;;;;;;4950129;28;20166;-93
2022/03/28 06:39:36;;;;;;;;;;;12.20;92.10;;;;;;4950799;29;20275;-92
2022/03/28 06:42:03;;;;;;;;;;;12.20;91.90;;;;;;4950237;29;19910;-92
2022/03/28 06:44:30;;;;;;;;;;;12.30;91.90;;;;;;4950795;29;20467;-91
2022/03/28 06:46:56;;;;;;;;;;;12.30;92.10;;;;;;4950388;29;20356;-92
2022/03/28 06:49:21;;;;;;;;;;;12.40;92.00;;;;;;4951053;29;19927;-92
2022/03/28 06:51:47;;;;;;;;;;;12.40;91.90;;;;;;4959450;29;19993;-92
2022/03/28 06:54:19;;;;;;;;;;;12.40;91.80;;;;;;4935453;29;20399;-93
2022/03/28 06:56:45;;;;;;;;;;;12.50;91.20;;;;;;4933999;29;19978;-93
2022/03/28 06:59:11;;;;;;;;;;;12.50;91.30;;;;;;4934277;29;19911;-94
2022/03/28 07:01:36;;;;;;;;;;;12.60;90.70;;;;;;4934289;29;19911;-92
2022/03/28 07:04:03;;;;;;;;;;;12.60;91.00;;;;;;4934238;29;19942;-93
2022/03/28 07:06:29;;;;;;;;;;;12.60;91.10;;;;;;4934548;29;20279;-93
2022/03/28 07:08:54;;;;;;;;;;;12.70;90.50;;;;;;4934294;29;19997;-92
2022/03/28 07:11:20;;;;;;;;;;;12.80;90.50;;;;;;4934013;29;19911;-93
2022/03/28 07:13:46;;;;;;;;;;;12.80;90.40;;;;;;4933879;29;20010;-93
2022/03/28 07:16:11;;;;;;;;;;;12.90;90.10;;;;;;4934108;29;19919;-92
2022/03/28 07:18:37;;;;;;;;;;;13.00;89.90;;;;;;4934106;29;19911;-93
2022/03/28 07:21:03;;;;;;;;;;;13.10;90.00;;;;;;4934017;29;19911;-92
2022/03/28 07:23:29;;;;;;;;;;;13.20;90.00;;;;;;4934381;29;20026;-92
2022/03/28 07:25:57;;;;;;;;;;;13.30;89.80;;;;;;4934025;29;20002;-93
2022/03/28 07:28:23;;;;;;;;;;;13.30;89.40;;;;;;4934365;29;19921;-92
2022/03/28 07:30:48;;;;;;;;;;;13.40;89.60;;;;;;4933708;29;19997;-92
2022/03/28 07:33:14;;;;;;;;;;;13.40;88.90;;;;;;4934103;29;19945;-93
2022/03/28 07:35:40;;;;;;;;;;;13.40;87.70;;;;;;4933537;29;19911;-93
2022/03/28 07:38:08;;;;;;;;;;;13.50;87.90;;;;;;4933819;29;19934;-93
2022/03/28 07:40:37;;;;;;;;;;;13.50;87.80;;;;;;4933946;29;19915;-93
2022/03/28 07:43:03;;;;;;;;;;;13.60;86.50;;;;;;4934580;29;19946;-93
2022/03/28 07:45:29;;;;;;;;;;;13.70;87.00;;;;;;4934008;29;19911;-92
2022/03/28 07:47:55;;;;;;;;;;;13.70;87.70;;;;;;4933430;29;20009;-92
2022/03/28 07:50:20;;;;;;;;;;;13.80;87.60;;;;;;4933674;29;19911;-92
2022/03/28 07:52:46;;;;;;;;;;;13.90;86.50;;;;;;4936389;29;19923;-93
2022/03/28 07:55:15;;;;;;;;;;;13.90;86.20;;;;;;4949287;29;19965;-92
2022/03/28 07:57:43;;;;;;;;;;;13.90;87.10;;;;;;4949486;29;20291;-93
2022/03/28 08:00:13;;;;;;;;;;;14.00;85.70;;;;;;4949531;29;19946;-93
2022/03/28 08:02:39;;;;;;;;;;;14.00;85.10;;;;;;4949479;29;19918;-93
2022/03/28 08:05:05;;;;;;;;;;;14.10;84.30;;;;;;4949358;29;19911;-93
2022/03/28 08:07:31;;;;;;;;;;;14.10;84.60;;;;;;4949093;29;20006;-92
2022/03/28 08:09:57;;;;;;;;;;;14.30;85.00;;;;;;4949371;29;19957;-93
2022/03/28 08:12:25;;;;;;;;;;;14.30;84.20;;;;;;4948933;29;19911;-92
2022/03/28 08:14:51;;;;;;;;;;;14.50;84.20;;;;;;4949092;29;19981;-94
2022/03/28 08:17:19;;;;;;;;;;;14.60;84.50;;;;;;4948971;29;19919;-93
2022/03/28 08:19:44;;;;;;;;;;;14.70;83.90;;;;;;4955398;29;19938;-93
2022/03/28 08:22:10;;;;;;;;;;;14.90;83.50;;;;;;4950568;29;19915;-92
2022/03/28 08:24:36;;;;;;;;;;;14.90;83.80;;;;;;4949122;29;19911;-92
2022/03/28 08:27:01;;;;;;;;;;;15.00;82.60;;;;;;4949182;29;19918;-93
2022/03/28 08:29:27;;;;;;;;;;;15.10;84.00;;;;;;4949191;29;19907;-93
2022/03/28 08:31:55;;;;;;;;;;;15.30;82.90;;;;;;4948974;29;19911;-92
2022/03/28 08:34:20;;;;;;;;;;;15.40;82.40;;;;;;4948966;29;19917;-93
2022/03/28 08:36:46;;;;;;;;;;;15.40;82.40;;;;;;4949148;29;19918;-94
2022/03/28 08:39:12;;;;;;;;;;;15.50;81.70;;;;;;4948973;29;19914;-93
2022/03/28 08:41:37;;;;;;;;;;;15.50;81.20;;;;;;4949204;29;19915;-95
2022/03/28 08:44:03;;;;;;;;;;;15.50;82.00;;;;;;4948908;29;19950;-93
2022/03/28 08:46:29;;;;;;;;;;;15.70;80.50;;;;;;4949175;29;19919;-92
2022/03/28 08:48:56;;;;;;;;;;;15.60;80.30;;;;;;4948847;29;20001;-92
2022/03/28 08:51:22;;;;;;;;;;;15.70;81.70;;;;;;4949073;29;20333;-94
2022/03/28 08:53:47;;;;;;;;;;;15.80;80.20;;;;;;4937765;29;19923;-93
2022/03/28 08:56:15;;;;;;;;;;;16.00;80.40;;;;;;4932661;29;19919;-94
2022/03/28 08:58:43;;;;;;;;;;;16.20;81.00;;;;;;4933237;29;21461;-93
2022/03/28 09:01:09;;;;;;;;;;;16.30;79.30;;;;;;4935554;29;19954;-94
2022/03/28 09:03:47;;;;;;;;;;;16.30;79.60;;;;;;4936595;29;19910;-92
2022/03/28 09:06:30;;;;;;;;;;;16.20;79.70;;;;;;4936451;29;19978;-93
2022/03/28 09:09:08;;;;;;;;;;;16.10;80.10;;;;;;4936479;29;19911;-93
2022/03/28 09:11:36;;;;;;;;;;;16.20;81.00;;;;;;4936743;29;19915;-94
2022/03/28 09:14:04;;;;;;;;;;;16.50;81.70;;;;;;4936440;29;20234;-93
2022/03/28 09:16:34;;;;;;;;;;;16.50;79.80;;;;;;4937449;29;20371;-92
2022/03/28 09:19:10;;;;;;;;;;;16.50;81.30;;;;;;4936445;29;19911;-92
2022/03/28 09:21:41;;;;;;;;;;;16.70;80.70;;;;;;4936178;29;20357;-92
2022/03/28 09:24:10;;;;;;;;;;;16.90;81.70;;;;;;4936313;29;19917;-94
2022/03/28 09:26:36;;;;;;;;;;;17.00;80.70;;;;;;4936277;29;19911;-94
2022/03/28 09:29:03;;;;;;;;;;;17.10;79.20;;;;;;4935951;29;20108;-92
2022/03/28 09:31:43;;;;;;;;;;;16.90;80.20;;;;;;4936113;29;20393;-92
2022/03/28 09:34:10;;;;;;;;;;;16.70;79.80;;;;;;4936130;29;20419;-92
2022/03/28 09:36:49;;;;;;;;;;;16.90;80.30;;;;;;4935903;29;19923;-92
2022/03/28 09:39:16;;;;;;;;;;;16.90;78.70;;;;;;4936242;29;20344;-94
2022/03/28 09:41:46;;;;;;;;;;;17.00;79.70;;;;;;4919896;29;19966;-94
2022/03/28 09:44:11;;;;;;;;;;;17.20;78.70;;;;;;4934713;29;20284;-92
2022/03/28 09:46:37;;;;;;;;;;;17.10;79.10;;;;;;4935960;29;19917;-91
2022/03/28 09:49:03;;;;;;;;;;;17.10;77.50;;;;;;4938108;29;19915;-91
2022/03/28 09:51:31;;;;;;;;;;;17.20;78.30;;;;;;4952342;29;20255;-92
2022/03/28 09:53:58;;;;;;;;;;;17.40;78.90;;;;;;4951549;28;20442;-93
2022/03/28 09:56:24;;;;;;;;;;;17.60;79.70;;;;;;4954414;29;20411;-92
2022/03/28 09:59:04;;;;;;;;;;;17.80;78.60;;;;;;4954657;29;19910;-94
2022/03/28 10:01:42;;;;;;;;;;;18.00;79.80;;;;;;4938256;29;19961;-93
2022/03/28 10:04:19;;;;;;;;;;;18.20;79.40;;;;;;4954706;29;19917;-93
2022/03/28 10:06:52;;;;;;;;;;;18.40;78.90;;;;;;4954621;29;19914;-92
2022/03/28 10:09:20;;;;;;;;;;;18.60;78.80;;;;;;4954766;29;20355;-92
2022/03/28 10:11:52;;;;;;;;;;;18.60;78.70;;;;;;4953154;28;19958;-92
2022/03/28 10:14:50;;;;;;;;;;;;;;;;;;;;;
2022/03/28 10:17:50;;;;;;;;;;;18.60;79.00;;;;;;4859014;29;20396;-94
2022/03/28 10:20:35;;;;;;;;;;;;;;;;;;;;;
2022/03/28 10:23:50;;;;;;;;;;;19.00;79.80;;;;;;4858793;29;19912;-96
2022/03/28 10:26:44;;;;;;;;;;;19.20;77.30;;;;;;4854959;29;20002;-93
2022/03/28 10:29:21;;;;;;;;;;;19.20;75.90;;;;;;4856361;29;19912;-95
2022/03/28 10:51:33;;;;;;;;;;;19.50;74.70;;;;;;4702646;30;19968;-93
2022/03/28 10:54:13;;;;;;;;;;;19.60;73.60;;;;;;4741715;29;19929;-94
2022/03/28 10:59:31;;;;;;;;;;;19.90;73.60;;;;;;4954991;29;19917;-92
2022/03/28 11:01:59;;;;;;;;;;;20.20;74.00;;;;;;4953423;29;19910;-93
2022/03/28 11:04:27;;;;;;;;;;;20.40;73.60;;;;;;4953525;29;19925;-93
2022/03/28 11:07:04;;;;;;;;;;;20.70;74.10;;;;;;4953503;29;19911;-92
2022/03/28 11:09:35;;;;;;;;;;;20.60;71.30;;;;;;4952697;29;19981;-93
2022/03/28 11:12:05;;;;;;;;;;;20.70;73.00;;;;;;4937611;29;19921;-93
2022/03/28 11:14:49;;;;;;;;;;;20.80;73.30;;;;;;4953196;29;19933;-92
2022/03/28 11:17:21;;;;;;;;;;;20.90;72.30;;;;;;4936733;29;19919;-94
2022/03/28 11:19:51;;;;;;;;;;;21.00;72.70;;;;;;4937260;29;19950;-95
2022/03/28 11:22:20;;;;;;;;;;;21.00;72.80;;;;;;4955018;28;19906;-94
2022/03/28 11:24:47;;;;;;;;;;;21.10;72.30;;;;;;4968922;29;19944;-95
2022/03/28 11:27:38;;;;;;;;;;;21.20;69.00;;;;;;4953814;29;19915;-93
2022/03/28 11:30:05;;;;;;;;;;;21.00;69.80;;;;;;4954024;29;19911;-92
2022/03/28 11:32:43;;;;;;;;;;;20.90;71.30;;;;;;4953006;29;19914;-93
2022/03/28 11:35:15;;;;;;;;;;;21.20;73.00;;;;;;4952350;29;20375;-92
2022/03/28 11:37:43;;;;;;;;;;;21.50;70.00;;;;;;4952576;29;19918;-92
2022/03/28 11:40:09;;;;;;;;;;;21.70;68.80;;;;;;4952769;29;19910;-92
2022/03/28 11:42:35;;;;;;;;;;;21.30;69.00;;;;;;4952402;29;20290;-92
2022/03/28 11:45:12;;;;;;;;;;;21.30;72.70;;;;;;4952217;29;19910;-92
2022/03/28 11:47:49;;;;;;;;;;;21.50;70.10;;;;;;4952511;29;20287;-94
2022/03/28 11:50:32;;;;;;;;;;;21.70;71.50;;;;;;4953502;29;19914;-92
2022/03/28 11:52:58;;;;;;;;;;;21.90;70.30;;;;;;4953231;28;19973;-92
2022/03/28 11:55:37;;;;;;;;;;;22.10;70.40;;;;;;4952421;29;19911;-92
2022/03/28 11:58:15;;;;;;;;;;;22.30;69.60;;;;;;4952298;29;19930;-92
2022/03/28 12:00:45;;;;;;;;;;;22.30;70.20;;;;;;4952070;29;19910;-92
2022/03/28 12:03:12;;;;;;;;;;;22.00;69.30;;;;;;4952155;29;20322;-92
2022/03/28 12:05:43;;;;;;;;;;;21.80;71.10;;;;;;4952355;29;19969;-95
2022/03/28 12:08:09;;;;;;;;;;;21.70;69.80;;;;;;4952359;29;20197;-93
2022/03/28 12:10:36;;;;;;;;;;;21.70;71.30;;;;;;4936294;29;20223;-93
2022/03/28 12:13:05;;;;;;;;;;;22.00;70.60;;;;;;4952275;29;19922;-93
2022/03/28 12:15:32;;;;;;;;;;;22.30;69.50;;;;;;4951774;29;19910;-94
2022/03/28 12:17:59;;;;;;;;;;;22.00;69.50;;;;;;4951860;29;19977;-92
2022/03/28 12:20:31;;;;;;;;;;;21.80;69.30;;;;;;4951840;29;19950;-92
2022/03/28 12:22:58;;;;;;;;;;;21.80;69.10;;;;;;4952008;29;19960;-92
2022/03/28 12:25:23;;;;;;;;;;;21.80;70.20;;;;;;4952072;29;19911;-93
2022/03/28 12:27:55;;;;;;;;;;;21.80;71.10;;;;;;4935811;29;20399;-92
2022/03/28 12:30:29;;;;;;;;;;;21.80;70.40;;;;;;4951789;29;20442;-92
2022/03/28 12:32:55;;;;;;;;;;;21.50;68.60;;;;;;4951791;29;19911;-92
2022/03/28 12:35:21;;;;;;;;;;;21.30;70.50;;;;;;4951260;29;19911;-92
2022/03/28 12:38:03;;;;;;;;;;;21.30;70.00;;;;;;4951651;29;19969;-92
2022/03/28 12:40:30;;;;;;;;;;;21.40;70.50;;;;;;4951756;29;19910;-91
2022/03/28 12:42:56;;;;;;;;;;;21.60;70.00;;;;;;4952191;29;19914;-92
2022/03/28 12:45:28;;;;;;;;;;;21.70;70.30;;;;;;4951677;29;19911;-92
2022/03/28 12:47:57;;;;;;;;;;;21.50;70.80;;;;;;4951652;29;19910;-94
2022/03/28 12:50:26;;;;;;;;;;;21.60;70.50;;;;;;4951963;29;20406;-92
2022/03/28 12:53:11;;;;;;;;;;;21.80;71.10;;;;;;4951617;29;19922;-91
2022/03/28 12:55:39;;;;;;;;;;;22.00;68.70;;;;;;4951658;29;20407;-92
2022/03/28 12:58:05;;;;;;;;;;;21.90;69.30;;;;;;4956708;29;19922;-91
2022/03/28 13:00:31;;;;;;;;;;;22.00;68.00;;;;;;4968085;29;20446;-92
2022/03/28 13:03:03;;;;;;;;;;;22.00;68.80;;;;;;4951880;29;20001;-94
2022/03/28 13:05:32;;;;;;;;;;;22.00;67.60;;;;;;4951480;29;19910;-92
2022/03/28 13:08:04;;;;;;;;;;;21.90;68.10;;;;;;4952829;29;20005;-96
2022/03/28 13:10:34;;;;;;;;;;;22.30;65.50;;;;;;4935557;29;20282;-92
2022/03/28 13:13:01;;;;;;;;;;;22.40;63.90;;;;;;4951932;29;19910;-95
2022/03/28 13:15:34;;;;;;;;;;;22.50;62.00;;;;;;4951601;29;20131;-93
2022/03/28 13:18:05;;;;;;;;;;;22.30;60.40;;;;;;4951430;29;19919;-92
2022/03/28 13:20:31;;;;;;;;;;;22.10;62.70;;;;;;4951797;29;20009;-93
2022/03/28 13:23:03;;;;;;;;;;;22.00;62.70;;;;;;4951600;29;19954;-94
2022/03/28 13:25:31;;;;;;;;;;;21.90;61.40;;;;;;4951425;29;19917;-93
2022/03/28 13:28:02;;;;;;;;;;;21.80;61.30;;;;;;4951562;29;20374;-93
2022/03/28 13:30:37;;;;;;;;;;;22.00;62.30;;;;;;4935435;29;19993;-92
2022/03/28 13:33:05;;;;;;;;;;;22.10;62.50;;;;;;4951616;29;19911;-95
2022/03/28 13:35:31;;;;;;;;;;;22.00;61.10;;;;;;4951776;29;19918;-93
2022/03/28 13:38:01;;;;;;;;;;;22.20;61.40;;;;;;4951225;29;19918;-93
2022/03/28 13:40:30;;;;;;;;;;;22.40;60.70;;;;;;4951335;29;19953;-92
2022/03/28 13:42:56;;;;;;;;;;;22.90;60.20;;;;;;4951075;29;20118;-93
2022/03/28 13:45:23;;;;;;;;;;;23.10;59.50;;;;;;4951126;28;19915;-92
2022/03/28 13:47:50;;;;;;;;;;;23.30;58.90;;;;;;4954944;29;19910;-92
2022/03/28 13:50:21;;;;;;;;;;;23.20;59.30;;;;;;4954749;29;19965;-92
2022/03/28 13:52:47;;;;;;;;;;;22.90;59.50;;;;;;4954393;28;19930;-92
2022/03/28 13:55:17;;;;;;;;;;;22.90;59.50;;;;;;4955803;29;20295;-92
2022/03/28 13:57:50;;;;;;;;;;;23.30;59.50;;;;;;4954449;29;19926;-92
2022/03/28 14:00:16;;;;;;;;;;;23.60;60.50;;;;;;4955432;29;19919;-96
2022/03/28 14:02:42;;;;;;;;;;;23.40;59.40;;;;;;4954416;29;19919;-92
2022/03/28 14:05:08;;;;;;;;;;;23.50;60.00;;;;;;4954552;29;19918;-93
2022/03/28 14:07:33;;;;;;;;;;;23.80;58.60;;;;;;4954346;29;20001;-96
2022/03/28 14:09:59;;;;;;;;;;;24.10;59.30;;;;;;4954233;29;19918;-92
2022/03/28 14:12:30;;;;;;;;;;;24.00;59.50;;;;;;4954431;29;20442;-93
2022/03/28 14:15:01;;;;;;;;;;;24.30;59.50;;;;;;4954214;29;20360;-92
2022/03/28 14:17:31;;;;;;;;;;;24.70;59.50;;;;;;4955343;29;19978;-94
2022/03/28 14:20:04;;;;;;;;;;;24.40;59.20;;;;;;4954993;29;19910;-94
2022/03/28 14:22:33;;;;;;;;;;;24.40;59.10;;;;;;4955629;29;19957;-94
2022/03/28 14:25:01;;;;;;;;;;;24.10;59.10;;;;;;4957990;29;19911;-95
2022/03/28 14:27:30;;;;;;;;;;;24.20;59.50;;;;;;4956373;29;19966;-94
2022/03/28 14:30:00;;;;;;;;;;;24.60;58.90;;;;;;4959230;29;19962;-94
2022/03/28 14:32:28;;;;;;;;;;;25.10;58.10;;;;;;4954400;29;19911;-94
2022/03/28 14:34:59;;;;;;;;;;;24.90;57.60;;;;;;4958555;29;20264;-94
2022/03/28 14:37:25;;;;;;;;;;;25.20;57.90;;;;;;4960517;29;20018;-95
2022/03/28 14:39:53;;;;;;;;;;;25.50;57.60;;;;;;4955683;29;19950;-95
2022/03/28 14:42:23;;;;;;;;;;;25.50;57.80;;;;;;4955042;29;19916;-94
2022/03/28 14:44:50;;;;;;;;;;;25.20;57.70;;;;;;4954077;29;19926;-94